createdAt,value
2023-05-11T00:02:15.787Z,4.35
2023-05-11T00:04:43.508Z,4.10
2023-05-11T00:07:11.318Z,4.57
2023-05-11T00:09:38.759Z,4.45
2023-05-11T00:12:06.243Z,4.35
2023-05-11T00:14:33.651Z,4.18
2023-05-11T00:17:01.034Z,5.00
2023-05-11T00:19:31.415Z,4.00
2023-05-11T00:21:59.282Z,4.78
2023-05-11T00:24:26.978Z,4.70
2023-05-11T00:26:54.419Z,4.63
2023-05-11T00:29:21.907Z,4.90
2023-05-11T00:31:50.086Z,4.95
2023-05-11T00:34:18.802Z,5.53
2023-05-11T00:36:46.329Z,4.85
2023-05-11T00:39:13.723Z,4.80
2023-05-11T00:41:41.248Z,5.63
2023-05-11T00:44:08.758Z,5.50
2023-05-11T00:46:36.507Z,6.28
2023-05-11T00:49:04.033Z,6.07
2023-05-11T00:51:32.890Z,6.22
2023-05-11T00:54:01.056Z,6.45
2023-05-11T00:56:28.463Z,6.45
2023-05-11T00:58:55.902Z,6.30
2023-05-11T01:01:23.705Z,6.53
2023-05-11T01:03:51.339Z,6.63
2023-05-11T01:06:28.682Z,6.50
2023-05-11T01:09:00.861Z,6.95
2023-05-11T01:11:34.368Z,6.35
2023-05-11T01:14:07.522Z,6.85
2023-05-11T01:16:39.062Z,6.65
2023-05-11T01:19:19.192Z,6.47
2023-05-11T01:21:47.854Z,6.45
2023-05-11T01:24:21.415Z,6.45
2023-05-11T01:26:49.020Z,6.72
2023-05-11T01:29:37.715Z,6.65
2023-05-11T01:32:07.409Z,6.05
2023-05-11T01:34:36.443Z,6.25
2023-05-11T01:37:10.610Z,7.30
2023-05-11T01:39:44.825Z,6.57
2023-05-11T01:42:13.992Z,6.82
2023-05-11T01:44:44.828Z,6.72
2023-05-11T01:47:13.950Z,7.10
2023-05-11T01:49:43.324Z,6.88
2023-05-11T01:52:12.073Z,7.70
2023-05-11T01:54:39.917Z,5.78
2023-05-11T01:57:07.898Z,6.35
2023-05-11T01:59:36.155Z,6.97
2023-05-11T02:02:04.253Z,6.70
2023-05-11T02:04:32.642Z,5.88
2023-05-11T02:07:01.658Z,7.00
2023-05-11T02:09:30.322Z,6.70
2023-05-11T02:11:58.646Z,6.30
2023-05-11T02:14:28.591Z,6.85
2023-05-11T02:16:57.365Z,6.88
2023-05-11T02:19:25.374Z,6.55
2023-05-11T02:21:53.764Z,6.75
2023-05-11T02:24:22.060Z,6.97
2023-05-11T02:26:49.569Z,7.30
2023-05-11T02:29:17.315Z,6.90
2023-05-11T02:31:47.036Z,6.55
2023-05-11T02:34:21.900Z,7.57
2023-05-11T02:36:50.162Z,7.03
2023-05-11T02:39:21.983Z,7.22
2023-05-11T02:41:54.592Z,7.57
2023-05-11T02:44:23.544Z,7.10
2023-05-11T02:46:53.314Z,7.32
2023-05-11T02:49:23.007Z,6.88
2023-05-11T02:51:51.728Z,7.35
2023-05-11T02:54:19.631Z,8.77
2023-05-11T02:56:52.076Z,7.38
2023-05-11T02:59:20.854Z,7.30
2023-05-11T03:01:49.005Z,7.43
2023-05-11T03:04:16.537Z,7.35
2023-05-11T03:06:43.941Z,7.88
2023-05-11T03:09:11.986Z,7.47
2023-05-11T03:11:45.063Z,7.97
2023-05-11T03:14:13.284Z,7.45
2023-05-11T03:16:42.281Z,7.03
2023-05-11T03:19:10.737Z,7.57
2023-05-11T03:21:38.787Z,7.47
2023-05-11T03:24:09.124Z,7.53
2023-05-11T03:26:37.269Z,8.10
2023-05-11T03:29:05.921Z,7.05
2023-05-11T03:31:33.503Z,8.15
2023-05-11T03:34:01.119Z,7.93
2023-05-11T03:36:32.376Z,7.90
2023-05-11T03:39:00.550Z,7.45
2023-05-11T03:41:33.184Z,7.35
2023-05-11T03:44:01.335Z,7.00
2023-05-11T03:46:29.933Z,7.78
2023-05-11T03:48:57.843Z,7.07
2023-05-11T03:51:27.957Z,7.50
2023-05-11T03:53:56.541Z,7.25
2023-05-11T03:56:24.079Z,7.15
2023-05-11T03:58:58.983Z,7.25
2023-05-11T04:01:27.022Z,12.20
2023-05-11T04:03:54.851Z,7.95
2023-05-11T04:06:24.199Z,8.13
2023-05-11T04:09:06.375Z,7.57
2023-05-11T04:11:36.814Z,8.05
2023-05-11T04:14:05.179Z,7.22
2023-05-11T04:16:32.698Z,7.35
2023-05-11T04:19:00.208Z,8.00
2023-05-11T04:21:27.724Z,7.15
2023-05-11T04:23:55.104Z,7.80
2023-05-11T04:26:22.657Z,6.40
2023-05-11T04:28:53.322Z,6.60
2023-05-11T04:31:20.951Z,6.53
2023-05-11T04:33:49.006Z,6.47
2023-05-11T04:36:17.161Z,6.32
2023-05-11T04:38:45.550Z,6.32
2023-05-11T04:41:14.782Z,5.68
2023-05-11T04:43:42.684Z,6.35
2023-05-11T04:46:10.864Z,6.45
2023-05-11T04:48:38.568Z,7.32
2023-05-11T04:51:07.272Z,6.55
2023-05-11T04:53:40.659Z,5.53
2023-05-11T04:56:08.317Z,4.90
2023-05-11T04:58:35.796Z,5.35
2023-05-11T05:01:04.193Z,6.50
2023-05-11T05:03:31.627Z,5.65
2023-05-11T05:05:59.145Z,5.90
2023-05-11T05:08:26.513Z,4.95
2023-05-11T05:10:54.237Z,4.90
2023-05-11T05:13:21.681Z,5.20
2023-05-11T05:15:49.280Z,4.68
2023-05-11T05:18:16.697Z,4.72
2023-05-11T05:20:45.949Z,3.85
2023-05-11T05:23:13.280Z,4.55
2023-05-11T05:25:40.765Z,4.90
2023-05-11T05:28:08.416Z,4.00
2023-05-11T05:30:37.221Z,4.35
2023-05-11T05:33:05.178Z,4.32
2023-05-11T05:35:34.459Z,3.97
2023-05-11T05:38:01.950Z,4.05
2023-05-11T05:40:29.473Z,4.00
2023-05-11T05:42:57.349Z,4.10
2023-05-11T05:45:25.590Z,3.80
2023-05-11T05:47:53.396Z,3.88
2023-05-11T05:50:22.424Z,3.40
2023-05-11T05:52:49.916Z,3.08
2023-05-11T05:55:17.847Z,2.70
2023-05-11T05:57:49.292Z,2.95
2023-05-11T06:00:17.702Z,2.80
2023-05-11T06:02:50.347Z,2.87
2023-05-11T06:05:24.206Z,3.92
2023-05-11T06:08:06.000Z,3.00
2023-05-11T06:13:05.262Z,3.03
2023-05-11T06:15:32.783Z,2.88
2023-05-11T06:18:08.092Z,3.30
2023-05-11T06:20:36.331Z,3.30
2023-05-11T06:23:06.113Z,3.22
2023-05-11T06:25:36.719Z,3.40
2023-05-11T06:28:05.059Z,3.05
2023-05-11T06:30:33.539Z,2.90
2023-05-11T06:33:02.348Z,3.03
2023-05-11T06:35:30.387Z,3.17
2023-05-11T06:37:58.822Z,3.30
2023-05-11T06:40:26.744Z,3.30
2023-05-11T06:42:54.270Z,3.53
2023-05-11T06:45:21.740Z,3.03
2023-05-11T06:47:49.410Z,3.28
2023-05-11T06:50:17.532Z,3.10
2023-05-11T06:52:46.335Z,2.70
2023-05-11T06:55:17.023Z,3.00
2023-05-11T06:57:44.541Z,2.95
2023-05-11T07:00:12.110Z,2.92
2023-05-11T07:02:39.562Z,2.83
2023-05-11T07:05:07.398Z,2.83
2023-05-11T07:07:34.874Z,3.33
2023-05-11T07:10:02.240Z,3.00
2023-05-11T07:12:29.675Z,3.15
2023-05-11T07:14:57.028Z,3.70
2023-05-11T07:17:24.828Z,3.42
2023-05-11T07:19:52.551Z,3.45
2023-05-11T07:22:20.008Z,3.22
2023-05-11T07:24:47.380Z,4.10
2023-05-11T07:27:15.074Z,3.67
2023-05-11T07:29:42.445Z,2.92
2023-05-11T07:32:09.817Z,3.30
2023-05-11T07:34:37.236Z,3.00
2023-05-11T07:37:04.820Z,3.08
2023-05-11T07:39:32.181Z,3.00
2023-05-11T07:41:59.644Z,3.30
2023-05-11T07:44:27.018Z,3.10
2023-05-11T07:46:55.090Z,8.43
2023-05-11T07:49:28.188Z,4.95
2023-05-11T07:52:02.898Z,4.47
2023-05-11T07:54:30.690Z,4.50
2023-05-11T07:56:58.173Z,2.65
2023-05-11T07:59:25.758Z,4.78
2023-05-11T08:01:53.208Z,12.25
2023-05-11T08:04:20.687Z,3.50
2023-05-11T08:06:48.329Z,2.60
2023-05-11T08:09:16.128Z,2.58
2023-05-11T08:11:43.526Z,2.70
2023-05-11T08:14:10.964Z,2.90
2023-05-11T08:16:38.556Z,2.70
2023-05-11T08:19:06.257Z,2.55
2023-05-11T08:21:33.756Z,2.45
2023-05-11T08:24:01.236Z,2.88
2023-05-11T08:26:28.612Z,2.80
2023-05-11T08:28:56.149Z,2.40
2023-05-11T08:31:23.661Z,2.33
2023-05-11T08:33:51.496Z,2.30
2023-05-11T08:36:18.945Z,2.28
2023-05-11T08:38:46.411Z,2.30
2023-05-11T08:41:13.937Z,2.70
2023-05-11T08:43:41.628Z,2.83
2023-05-11T08:46:09.557Z,2.70
2023-05-11T08:48:37.032Z,2.80
2023-05-11T08:51:04.580Z,2.63
2023-05-11T08:53:32.725Z,3.10
2023-05-11T08:56:02.025Z,3.00
2023-05-11T08:58:30.913Z,2.42
2023-05-11T09:00:58.594Z,2.80
2023-05-11T09:03:26.168Z,4.20
2023-05-11T09:05:54.052Z,2.70
2023-05-11T09:08:22.257Z,2.40
2023-05-11T09:10:50.251Z,2.30
2023-05-11T09:13:17.661Z,2.40
2023-05-11T09:15:45.148Z,5.85
2023-05-11T09:18:13.437Z,4.13
2023-05-11T09:20:43.757Z,5.65
2023-05-11T09:23:11.184Z,4.55
2023-05-11T09:25:39.840Z,5.78
2023-05-11T09:28:07.311Z,4.50
2023-05-11T09:30:34.713Z,2.10
2023-05-11T09:33:05.488Z,2.67
2023-05-11T09:35:34.086Z,2.80
2023-05-11T09:38:04.088Z,2.10
2023-05-11T09:40:34.201Z,2.20
2023-05-11T09:43:02.567Z,2.35
2023-05-11T09:45:36.899Z,2.00
2023-05-11T09:48:05.255Z,1.75
2023-05-11T09:50:33.507Z,1.42
2023-05-11T09:53:01.164Z,1.85
2023-05-11T09:55:29.279Z,2.30
2023-05-11T09:57:58.297Z,1.73
2023-05-11T10:00:26.012Z,2.30
2023-05-11T10:03:06.977Z,2.35
2023-05-11T10:05:35.437Z,2.50
2023-05-11T10:08:06.824Z,2.33
2023-05-11T10:10:35.219Z,1.88
2023-05-11T10:13:03.528Z,2.88
2023-05-11T10:15:33.159Z,2.65
2023-05-11T10:18:01.452Z,2.00
2023-05-11T10:20:29.027Z,1.80
2023-05-11T10:22:56.586Z,2.08
2023-05-11T10:25:24.636Z,2.05
2023-05-11T10:27:52.383Z,1.98
2023-05-11T10:30:20.136Z,2.00
2023-05-11T10:32:47.894Z,2.05
2023-05-11T10:35:15.570Z,1.70
2023-05-11T10:37:43.446Z,1.95
2023-05-11T10:40:11.933Z,1.98
2023-05-11T10:42:42.502Z,1.90
2023-05-11T10:45:25.362Z,1.73
2023-05-11T10:47:55.710Z,2.13
2023-05-11T10:50:38.468Z,1.88
2023-05-11T10:53:29.331Z,1.80
2023-05-11T10:56:10.195Z,1.63
2023-05-11T10:58:40.482Z,1.80
2023-05-11T11:01:26.731Z,1.80
2023-05-11T11:04:02.812Z,1.42
2023-05-11T11:06:30.383Z,1.63
2023-05-11T11:09:01.375Z,1.45
2023-05-11T11:11:29.783Z,1.77
2023-05-11T11:13:57.940Z,1.42
2023-05-11T11:16:26.293Z,1.85
2023-05-11T11:18:53.898Z,1.58
2023-05-11T11:21:41.465Z,4.35
2023-05-11T11:24:08.980Z,3.55
2023-05-11T11:26:50.611Z,2.20
2023-05-11T11:29:18.208Z,3.10
2023-05-11T11:31:45.658Z,1.70
2023-05-11T11:34:25.412Z,1.70
2023-05-11T11:36:55.822Z,1.70
2023-05-11T11:39:25.493Z,2.15
2023-05-11T11:42:02.901Z,2.00
2023-05-11T11:44:31.356Z,2.00
2023-05-11T11:47:19.948Z,1.70
2023-05-11T11:49:52.174Z,1.92
2023-05-11T11:52:28.590Z,1.73
2023-05-11T11:54:56.788Z,1.80
2023-05-11T11:57:36.604Z,1.63
2023-05-11T12:00:07.133Z,1.60
2023-05-11T12:02:43.797Z,1.60
2023-05-11T12:05:18.951Z,1.63
2023-05-11T12:07:47.901Z,1.80
2023-05-11T12:10:17.417Z,2.00
2023-05-11T12:12:48.891Z,1.73
2023-05-11T12:15:29.572Z,1.80
2023-05-11T12:17:57.518Z,1.60
2023-05-11T12:20:26.008Z,1.90
2023-05-11T12:22:53.657Z,1.60
2023-05-11T12:25:21.885Z,1.70
2023-05-11T12:27:49.661Z,1.98
2023-05-11T12:30:21.119Z,1.90
2023-05-11T12:32:48.884Z,1.98
2023-05-11T12:35:22.597Z,1.88
2023-05-11T12:37:50.157Z,2.47
2023-05-11T12:40:17.695Z,1.98
2023-05-11T12:42:55.029Z,2.13
2023-05-11T12:45:23.584Z,2.28
2023-05-11T12:47:52.436Z,1.83
2023-05-11T12:50:20.401Z,1.95
2023-05-11T12:52:49.100Z,1.70
2023-05-11T12:55:27.209Z,1.80
2023-05-11T12:58:07.494Z,1.77
2023-05-11T13:00:34.999Z,1.90
2023-05-11T13:03:02.916Z,1.77
2023-05-11T13:05:30.429Z,1.90
2023-05-11T13:08:01.724Z,1.65
2023-05-11T13:10:29.164Z,2.13
2023-05-11T13:12:56.682Z,2.08
2023-05-11T13:15:25.168Z,2.10
2023-05-11T13:17:59.333Z,2.42
2023-05-11T13:20:27.967Z,2.28
2023-05-11T13:23:06.150Z,1.95
2023-05-11T13:25:34.060Z,2.28
2023-05-11T13:28:01.676Z,1.90
2023-05-11T13:30:29.160Z,1.80
2023-05-11T13:32:56.604Z,1.90
2023-05-11T13:35:24.102Z,2.22
2023-05-11T13:37:51.454Z,1.88
2023-05-11T13:40:18.953Z,1.77
2023-05-11T13:42:46.450Z,1.80
2023-05-11T13:45:13.909Z,1.90
2023-05-11T13:47:43.249Z,1.90
2023-05-11T13:50:12.899Z,2.08
2023-05-11T13:52:40.490Z,2.40
2023-05-11T13:55:08.296Z,2.10
2023-05-11T13:57:35.869Z,2.42
2023-05-11T14:00:03.678Z,2.35
2023-05-11T14:02:39.151Z,2.50
2023-05-11T14:05:07.002Z,2.40
2023-05-11T14:07:46.251Z,2.08
2023-05-11T14:10:15.345Z,2.15
2023-05-11T14:12:42.820Z,2.17
2023-05-11T14:15:11.322Z,2.05
2023-05-11T14:17:39.278Z,2.00
2023-05-11T14:20:07.253Z,2.05
2023-05-11T14:22:34.659Z,1.63
2023-05-11T14:25:02.120Z,1.98
2023-05-11T14:27:29.813Z,2.15
2023-05-11T14:29:57.278Z,1.90
2023-05-11T14:32:24.739Z,1.80
2023-05-11T14:34:52.086Z,1.70
2023-05-11T14:37:19.743Z,1.67
2023-05-11T14:39:47.081Z,1.63
2023-05-11T14:42:15.085Z,1.80
2023-05-11T14:44:42.481Z,2.13
2023-05-11T14:47:09.965Z,2.33
2023-05-11T14:49:37.441Z,1.88
2023-05-11T14:52:05.040Z,2.50
2023-05-11T14:54:32.541Z,2.33
2023-05-11T14:57:00.060Z,2.17
2023-05-11T14:59:28.278Z,2.00
2023-05-11T15:01:56.012Z,1.70
2023-05-11T15:04:23.539Z,2.10
2023-05-11T15:06:50.969Z,2.28
2023-05-11T15:09:20.214Z,2.03
2023-05-11T15:11:47.724Z,1.80
2023-05-11T15:14:15.591Z,1.80
2023-05-11T15:16:43.097Z,1.88
2023-05-11T15:19:10.749Z,1.83
2023-05-11T15:21:38.368Z,2.40
2023-05-11T15:24:07.501Z,2.47
2023-05-11T15:26:36.150Z,2.58
2023-05-11T15:29:03.561Z,2.80
2023-05-11T15:31:31.121Z,3.13
2023-05-11T15:33:58.679Z,3.20
2023-05-11T15:36:29.670Z,2.20
2023-05-11T15:38:57.508Z,2.08
2023-05-11T15:41:24.884Z,2.60
2023-05-11T15:43:55.080Z,1.80
2023-05-11T15:46:22.797Z,2.28
2023-05-11T15:48:50.347Z,2.55
2023-05-11T15:51:17.801Z,2.13
2023-05-11T15:53:45.179Z,2.08
2023-05-11T15:56:12.721Z,2.05
2023-05-11T15:58:40.260Z,2.10
2023-05-11T16:01:07.749Z,2.55
2023-05-11T16:03:35.270Z,2.90
2023-05-11T16:06:02.924Z,3.90
2023-05-11T16:08:30.302Z,2.58
2023-05-11T16:10:57.758Z,2.60
2023-05-11T16:13:25.120Z,2.78
2023-05-11T16:15:52.795Z,3.03
2023-05-11T16:18:20.358Z,2.50
2023-05-11T16:20:47.881Z,2.85
2023-05-11T16:23:15.302Z,3.10
2023-05-11T16:25:42.724Z,2.88
2023-05-11T16:28:10.232Z,3.42
2023-05-11T16:30:37.707Z,4.35
2023-05-11T16:33:05.142Z,4.97
2023-05-11T16:35:32.547Z,4.30
2023-05-11T16:38:00.462Z,6.50
2023-05-11T16:40:27.880Z,6.55
2023-05-11T16:42:55.245Z,8.48
2023-05-11T16:45:22.762Z,2.70
2023-05-11T16:47:50.248Z,2.65
2023-05-11T16:50:18.957Z,2.70
2023-05-11T16:52:46.479Z,2.63
2023-05-11T16:55:15.973Z,2.72
2023-05-11T16:57:44.592Z,2.38
2023-05-11T17:00:12.792Z,2.60
2023-05-11T17:02:40.835Z,2.50
2023-05-11T17:05:08.976Z,2.30
2023-05-11T17:07:36.361Z,2.30
2023-05-11T17:10:04.125Z,2.28
2023-05-11T17:12:32.104Z,2.90
2023-05-11T17:15:00.668Z,3.40
2023-05-11T17:17:28.074Z,2.85
2023-05-11T17:19:55.746Z,2.35
2023-05-11T17:22:23.213Z,2.72
2023-05-11T17:24:50.752Z,2.47
2023-05-11T17:27:18.251Z,2.85
2023-05-11T17:29:45.733Z,3.10
2023-05-11T17:32:13.392Z,2.65
2023-05-11T17:34:41.076Z,3.10
2023-05-11T17:37:14.847Z,3.15
2023-05-11T17:39:48.039Z,2.38
2023-05-11T17:42:15.446Z,2.75
2023-05-11T17:44:42.843Z,2.70
2023-05-11T17:47:10.236Z,3.03
2023-05-11T17:49:37.732Z,2.85
2023-05-11T17:52:05.300Z,2.75
2023-05-11T17:54:32.783Z,2.90
2023-05-11T17:57:00.308Z,3.92
2023-05-11T17:59:27.728Z,6.10
2023-05-11T18:01:55.260Z,3.10
2023-05-11T18:04:22.889Z,4.13
2023-05-11T18:06:50.434Z,3.58
2023-05-11T18:09:19.602Z,3.63
2023-05-11T18:11:46.973Z,2.75
2023-05-11T18:14:14.389Z,3.10
2023-05-11T18:16:41.867Z,2.47
2023-05-11T18:19:09.635Z,2.83
2023-05-11T18:21:37.730Z,2.80
2023-05-11T18:24:06.176Z,2.60
2023-05-11T18:26:33.563Z,2.60
2023-05-11T18:29:02.076Z,3.00
2023-05-11T18:31:32.478Z,2.75
2023-05-11T18:33:59.901Z,2.30
2023-05-11T18:36:28.162Z,2.70
2023-05-11T18:38:55.679Z,2.70
2023-05-11T18:41:23.181Z,2.40
2023-05-11T18:43:52.719Z,2.80
2023-05-11T18:46:21.506Z,2.67
2023-05-11T18:48:50.448Z,4.20
2023-05-11T18:51:20.189Z,2.67
2023-05-11T18:53:47.612Z,2.78
2023-05-11T18:56:15.117Z,3.80
2023-05-11T18:58:42.504Z,3.70
2023-05-11T19:01:10.184Z,4.00
2023-05-11T19:03:38.578Z,3.47
2023-05-11T19:06:07.586Z,3.90
2023-05-11T19:08:34.971Z,3.00
2023-05-11T19:11:10.363Z,3.88
2023-05-11T19:13:37.867Z,3.70
2023-05-11T19:16:05.739Z,3.80
2023-05-11T19:18:35.635Z,3.00
2023-05-11T19:21:04.976Z,3.30
2023-05-11T19:23:32.852Z,3.35
2023-05-11T19:26:00.671Z,2.70
2023-05-11T19:28:28.603Z,2.70
2023-05-11T19:31:06.147Z,2.85
2023-05-11T19:33:37.548Z,3.15
2023-05-11T19:36:05.550Z,3.40
2023-05-11T19:38:35.492Z,2.80
2023-05-11T19:41:12.817Z,3.38
2023-05-11T19:43:41.384Z,3.25
2023-05-11T19:46:09.505Z,3.10
2023-05-11T19:48:37.076Z,3.22
2023-05-11T19:51:04.523Z,3.05
2023-05-11T19:53:32.078Z,2.78
2023-05-11T19:55:59.785Z,3.15
2023-05-11T19:58:27.229Z,3.20
2023-05-11T20:00:55.012Z,3.05
2023-05-11T20:03:22.448Z,3.20
2023-05-11T20:05:51.077Z,3.10
2023-05-11T20:08:19.404Z,3.53
2023-05-11T20:10:46.830Z,4.97
2023-05-11T20:13:14.284Z,3.50
2023-05-11T20:15:41.700Z,3.35
2023-05-11T20:18:09.497Z,3.40
2023-05-11T20:20:37.201Z,3.80
2023-05-11T20:23:04.796Z,3.50
2023-05-11T20:25:32.197Z,3.30
2023-05-11T20:27:59.600Z,3.00
2023-05-11T20:30:27.026Z,3.22
2023-05-11T20:35:25.323Z,3.22
2023-05-11T20:37:52.895Z,3.20
2023-05-11T20:40:20.650Z,3.65
2023-05-11T20:42:48.241Z,3.50
2023-05-11T20:45:15.674Z,3.60
2023-05-11T20:47:43.045Z,3.20
2023-05-11T20:50:11.059Z,3.30
2023-05-11T20:52:38.630Z,3.38
2023-05-11T20:55:06.700Z,4.13
2023-05-11T20:57:34.135Z,4.35
2023-05-11T21:00:04.953Z,4.30
2023-05-11T21:02:32.778Z,3.75
2023-05-11T21:05:02.342Z,4.07
2023-05-11T21:07:30.989Z,3.92
2023-05-11T21:09:58.413Z,3.55
2023-05-11T21:12:25.851Z,3.92
2023-05-11T21:14:55.496Z,3.85
2023-05-11T21:17:24.255Z,4.13
2023-05-11T21:19:51.806Z,3.70
2023-05-11T21:22:19.262Z,3.88
2023-05-11T21:24:46.681Z,4.10
2023-05-11T21:27:14.090Z,3.92
2023-05-11T21:29:42.301Z,3.53
2023-05-11T21:32:10.247Z,3.50
2023-05-11T21:34:38.400Z,3.67
2023-05-11T21:37:05.841Z,4.00
2023-05-11T21:39:33.194Z,4.55
2023-05-11T21:42:01.631Z,4.20
2023-05-11T21:44:29.223Z,4.35
2023-05-11T21:46:56.718Z,4.13
2023-05-11T21:49:24.137Z,4.10
2023-05-11T21:51:51.685Z,4.00
2023-05-11T21:54:22.296Z,4.13
2023-05-11T21:56:50.277Z,4.38
2023-05-11T21:59:18.551Z,4.15
2023-05-11T22:01:47.058Z,4.15
2023-05-11T22:04:14.747Z,4.30
2023-05-11T22:06:43.257Z,4.35
2023-05-11T22:09:11.487Z,3.90
2023-05-11T22:11:39.473Z,4.10
2023-05-11T22:14:06.843Z,4.10
2023-05-11T22:16:34.259Z,3.75
2023-05-11T22:19:01.751Z,4.22
2023-05-11T22:21:29.404Z,4.10
2023-05-11T22:23:56.834Z,3.67
2023-05-11T22:26:24.223Z,4.30
2023-05-11T22:28:52.296Z,4.00
2023-05-11T22:31:19.823Z,3.80
2023-05-11T22:33:47.297Z,4.13
2023-05-11T22:36:14.631Z,3.70
2023-05-11T22:38:42.062Z,3.60
2023-05-11T22:41:09.466Z,3.97
2023-05-11T22:43:36.852Z,3.80
2023-05-11T22:46:05.201Z,4.03
2023-05-11T22:48:32.740Z,3.65
2023-05-11T22:51:00.158Z,4.40
2023-05-11T22:53:27.712Z,4.18
2023-05-11T22:55:55.038Z,4.18
2023-05-11T22:58:22.791Z,4.10
2023-05-11T23:00:54.649Z,4.03
2023-05-11T23:03:22.492Z,4.10
2023-05-11T23:05:49.981Z,4.32
2023-05-11T23:08:17.422Z,4.03
2023-05-11T23:10:44.789Z,4.30
2023-05-11T23:13:12.809Z,4.05
2023-05-11T23:15:40.792Z,4.25
2023-05-11T23:18:08.468Z,4.50
2023-05-11T23:20:35.892Z,4.70
2023-05-11T23:23:03.340Z,4.60
2023-05-11T23:25:31.088Z,4.32
2023-05-11T23:27:58.543Z,4.35
2023-05-11T23:30:26.196Z,4.55
2023-05-11T23:32:53.653Z,5.35
2023-05-11T23:35:21.028Z,5.07
2023-05-11T23:37:48.417Z,4.85
2023-05-11T23:40:15.923Z,4.63
2023-05-11T23:42:43.642Z,4.68
2023-05-11T23:45:11.375Z,4.80
2023-05-11T23:47:38.874Z,5.57
2023-05-11T23:50:07.430Z,5.10
2023-05-11T23:52:34.794Z,5.60
2023-05-11T23:55:02.330Z,5.07
2023-05-11T23:57:29.709Z,4.78
2023-05-11T23:59:57.113Z,5.93
